createdAt,value
2023-01-26T00:01:15.717Z,102125.09
2023-01-26T00:03:42.531Z,102122.63
2023-01-26T00:06:11.732Z,102111.69
2023-01-26T00:08:43.298Z,102108.13
2023-01-26T00:11:12.804Z,102110.22
2023-01-26T00:13:39.449Z,102104.47
2023-01-26T00:16:09.425Z,102101.53
2023-01-26T00:18:37.911Z,102097.84
2023-01-26T00:21:05.107Z,102088.91
2023-01-26T00:23:32.701Z,102098.72
2023-01-26T00:25:59.429Z,102094.47
2023-01-26T00:28:25.879Z,102083.91
2023-01-26T00:30:52.411Z,102090.66
2023-01-26T00:33:18.914Z,102086.72
2023-01-26T00:35:54.119Z,102082.41
2023-01-26T00:38:20.613Z,102070.53
2023-01-26T00:40:47.080Z,102070.34
2023-01-26T00:43:13.558Z,102061.38
2023-01-26T00:45:40.059Z,102066.84
2023-01-26T00:48:07.038Z,102062.72
2023-01-26T00:50:33.782Z,102062.50
2023-01-26T00:53:00.641Z,102062.13
2023-01-26T00:55:32.344Z,102052.63
2023-01-26T00:57:59.969Z,102054.22
2023-01-26T01:00:26.810Z,102060.47
2023-01-26T01:02:53.310Z,102053.00
2023-01-26T01:05:19.875Z,102066.00
2023-01-26T01:07:46.320Z,102064.56
2023-01-26T01:10:12.923Z,102071.03
2023-01-26T01:12:39.704Z,102073.50
2023-01-26T01:15:06.874Z,102061.59
2023-01-26T01:17:34.021Z,102063.66
2023-01-26T01:20:00.466Z,102070.53
2023-01-26T01:22:26.953Z,102069.69
2023-01-26T01:24:53.407Z,102064.56
2023-01-26T01:27:19.901Z,102062.19
2023-01-26T01:29:46.343Z,102065.22
2023-01-26T01:32:12.812Z,102063.69
2023-01-26T01:34:39.236Z,102058.88
2023-01-26T01:37:05.701Z,102063.06
2023-01-26T01:39:32.138Z,102069.50
2023-01-26T01:41:58.636Z,102064.53
2023-01-26T01:44:26.582Z,102065.69
2023-01-26T01:47:03.411Z,102052.72
2023-01-26T01:49:42.391Z,102047.31
2023-01-26T01:52:41.269Z,102044.34
2023-01-26T01:55:12.962Z,102050.84
2023-01-26T01:57:53.833Z,102047.28
2023-01-26T02:00:23.008Z,102043.81
2023-01-26T02:03:13.740Z,102034.94
2023-01-26T02:05:55.898Z,102038.91
2023-01-26T02:08:30.514Z,102041.09
2023-01-26T02:11:00.005Z,102040.59
2023-01-26T02:13:27.384Z,102031.53
2023-01-26T02:15:54.633Z,102028.13
2023-01-26T02:18:21.262Z,102029.59
2023-01-26T02:20:53.441Z,102034.13
2023-01-26T02:23:22.919Z,102026.13
2023-01-26T02:25:49.323Z,102020.84
2023-01-26T02:28:17.140Z,102014.88
2023-01-26T02:30:43.654Z,102018.94
2023-01-26T02:33:39.918Z,102019.69
2023-01-26T02:36:08.147Z,102021.22
2023-01-26T02:38:41.357Z,102013.84
2023-01-26T02:41:10.818Z,102015.78
2023-01-26T02:43:37.413Z,102022.84
2023-01-26T02:46:04.095Z,102017.94
2023-01-26T02:48:49.116Z,102014.06
2023-01-26T02:51:15.596Z,102021.13
2023-01-26T02:53:42.049Z,102030.84
2023-01-26T02:56:08.511Z,102017.28
2023-01-26T02:58:35.121Z,102023.50
2023-01-26T03:01:01.668Z,102020.03
2023-01-26T03:03:45.640Z,102021.09
2023-01-26T03:06:12.953Z,102010.81
2023-01-26T03:08:40.012Z,102015.06
2023-01-26T03:11:07.956Z,102006.31
2023-01-26T03:13:35.041Z,101999.00
2023-01-26T03:16:06.887Z,102001.97
2023-01-26T03:18:53.760Z,101992.88
2023-01-26T03:21:38.787Z,101987.78
2023-01-26T03:24:24.599Z,101981.31
2023-01-26T03:27:09.692Z,101981.53
2023-01-26T03:29:36.175Z,101983.81
2023-01-26T03:32:02.656Z,101986.94
2023-01-26T03:34:29.705Z,101996.47
2023-01-26T03:36:56.452Z,101990.34
2023-01-26T03:39:41.551Z,102001.03
2023-01-26T03:42:26.599Z,101997.50
2023-01-26T03:45:11.706Z,101990.25
2023-01-26T03:47:56.798Z,101988.00
2023-01-26T03:50:41.983Z,101987.06
2023-01-26T03:53:38.339Z,101982.00
2023-01-26T03:56:41.274Z,101984.97
2023-01-26T03:59:08.599Z,101984.97
2023-01-26T04:02:04.565Z,101994.38
2023-01-26T04:04:49.501Z,101991.72
2023-01-26T04:07:34.664Z,101986.06
2023-01-26T04:10:01.052Z,101988.53
2023-01-26T04:12:27.531Z,101981.69
2023-01-26T04:15:12.579Z,101985.81
2023-01-26T04:17:57.731Z,101981.91
2023-01-26T04:20:42.779Z,101980.31
2023-01-26T04:23:17.850Z,101974.78
2023-01-26T04:25:44.325Z,101977.19
2023-01-26T04:28:10.756Z,101972.31
2023-01-26T04:30:37.352Z,101958.88
2023-01-26T04:33:03.982Z,101958.16
2023-01-26T04:35:30.526Z,101956.44
2023-01-26T04:37:57.012Z,101957.31
2023-01-26T04:40:23.525Z,101965.47
2023-01-26T04:42:50.086Z,101963.78
2023-01-26T04:45:16.518Z,101961.91
2023-01-26T04:47:42.971Z,101967.84
2023-01-26T04:50:10.508Z,101955.28
2023-01-26T04:52:37.211Z,101949.81
2023-01-26T04:55:03.850Z,101956.38
2023-01-26T04:57:30.321Z,101962.22
2023-01-26T04:59:56.796Z,101952.22
2023-01-26T05:02:23.268Z,101948.06
2023-01-26T05:04:49.722Z,101947.56
2023-01-26T05:07:16.187Z,101945.69
2023-01-26T05:09:42.631Z,101948.84
2023-01-26T05:12:27.793Z,101946.66
2023-01-26T05:14:54.224Z,101943.44
2023-01-26T05:17:20.699Z,101944.47
2023-01-26T05:19:47.131Z,101944.19
2023-01-26T05:22:13.645Z,101946.69
2023-01-26T05:24:40.077Z,101941.88
2023-01-26T05:27:21.713Z,101939.50
2023-01-26T05:29:49.719Z,101946.81
2023-01-26T05:32:16.305Z,101949.22
2023-01-26T05:34:43.152Z,101945.63
2023-01-26T05:37:09.591Z,101946.03
2023-01-26T05:39:36.099Z,101936.34
2023-01-26T05:42:02.551Z,101952.09
2023-01-26T05:44:29.805Z,101943.81
2023-01-26T05:46:56.420Z,101938.00
2023-01-26T05:49:22.929Z,101942.50
2023-01-26T05:51:49.408Z,101948.59
2023-01-26T05:54:15.926Z,101946.06
2023-01-26T05:56:42.495Z,101952.66
2023-01-26T05:59:09.039Z,101955.13
2023-01-26T06:01:35.613Z,101955.25
2023-01-26T06:04:02.391Z,101964.69
2023-01-26T06:06:28.866Z,101962.19
2023-01-26T06:08:55.326Z,101965.75
2023-01-26T06:11:21.814Z,101960.91
2023-01-26T06:13:48.813Z,101960.41
2023-01-26T06:16:16.577Z,101961.28
2023-01-26T06:18:43.100Z,101965.41
2023-01-26T06:21:09.639Z,101961.50
2023-01-26T06:23:36.162Z,101969.63
2023-01-26T06:26:02.809Z,101964.31
2023-01-26T06:28:30.868Z,101962.19
2023-01-26T06:31:01.776Z,101963.00
2023-01-26T06:33:28.410Z,101960.13
2023-01-26T06:35:55.922Z,101970.66
2023-01-26T06:38:22.443Z,101953.97
2023-01-26T06:40:48.992Z,101965.88
2023-01-26T06:43:15.462Z,101962.38
2023-01-26T06:45:42.633Z,101965.78
2023-01-26T06:48:09.099Z,101962.72
2023-01-26T06:50:35.953Z,101960.88
2023-01-26T06:53:04.932Z,101964.47
2023-01-26T06:55:36.649Z,101962.13
2023-01-26T06:58:03.222Z,101964.38
2023-01-26T07:00:29.771Z,101967.84
2023-01-26T07:02:56.263Z,101969.84
2023-01-26T07:05:22.708Z,101975.31
2023-01-26T07:07:49.246Z,101976.16
2023-01-26T07:10:15.883Z,101981.84
2023-01-26T07:12:44.523Z,101977.50
2023-01-26T07:15:12.584Z,101973.09
2023-01-26T07:17:39.941Z,101974.84
2023-01-26T07:20:07.543Z,101987.19
2023-01-26T07:22:34.001Z,101978.59
2023-01-26T07:25:00.546Z,101971.25
2023-01-26T07:27:26.998Z,101973.72
2023-01-26T07:29:53.465Z,101982.47
2023-01-26T07:32:19.920Z,101983.06
2023-01-26T07:34:46.378Z,101984.28
2023-01-26T07:37:12.805Z,101989.00
2023-01-26T07:39:39.273Z,101993.50
2023-01-26T07:42:05.903Z,101994.34
2023-01-26T07:44:32.430Z,101999.31
2023-01-26T07:46:59.393Z,101995.41
2023-01-26T07:49:25.881Z,101988.94
2023-01-26T07:51:54.004Z,102003.78
2023-01-26T07:54:21.623Z,102002.16
2023-01-26T07:56:52.852Z,102002.69
2023-01-26T07:59:19.306Z,102007.91
2023-01-26T08:01:46.545Z,102012.06
2023-01-26T08:04:13.035Z,102006.06
2023-01-26T08:06:39.484Z,102009.91
2023-01-26T08:09:06.292Z,102010.69
2023-01-26T08:11:32.837Z,102017.59
2023-01-26T08:13:59.311Z,102015.91
2023-01-26T08:16:25.980Z,102022.28
2023-01-26T08:18:52.500Z,102006.31
2023-01-26T08:21:19.642Z,102006.34
2023-01-26T08:23:50.522Z,102010.41
2023-01-26T08:26:20.972Z,102016.91
2023-01-26T08:28:48.108Z,102018.41
2023-01-26T08:31:19.744Z,102015.94
2023-01-26T08:33:48.486Z,102021.25
2023-01-26T08:36:15.579Z,102016.56
2023-01-26T08:38:42.832Z,102003.56
2023-01-26T08:41:09.974Z,102006.56
2023-01-26T08:43:36.664Z,102008.75
2023-01-26T08:46:03.576Z,102010.63
2023-01-26T08:48:31.220Z,101993.78
2023-01-26T08:51:00.231Z,102005.31
2023-01-26T08:53:27.112Z,102010.41
2023-01-26T08:55:53.585Z,102008.88
2023-01-26T08:58:20.608Z,102010.91
2023-01-26T09:00:47.075Z,102004.53
2023-01-26T09:03:13.782Z,102010.06
2023-01-26T09:05:40.677Z,102013.19
2023-01-26T09:08:08.502Z,102022.00
2023-01-26T09:10:37.573Z,102014.44
2023-01-26T09:13:04.093Z,102014.84
2023-01-26T09:15:30.593Z,102028.72
2023-01-26T09:17:59.169Z,102021.66
2023-01-26T09:20:27.070Z,102009.06
2023-01-26T09:22:54.663Z,102014.53
2023-01-26T09:25:21.177Z,102016.13
2023-01-26T09:27:47.636Z,102015.78
2023-01-26T09:30:14.540Z,102008.31
2023-01-26T09:32:41.058Z,102015.38
2023-01-26T09:35:14.295Z,102015.50
2023-01-26T09:37:43.061Z,102022.75
2023-01-26T09:40:19.709Z,102019.97
2023-01-26T09:43:16.502Z,102008.78
2023-01-26T09:46:27.673Z,102009.69
2023-01-26T09:49:11.206Z,102001.78
2023-01-26T09:51:40.129Z,102007.78
2023-01-26T09:54:22.978Z,102000.53
2023-01-26T09:56:49.491Z,102008.72
2023-01-26T09:59:32.024Z,102013.75
2023-01-26T10:02:23.668Z,102012.94
2023-01-26T10:04:53.068Z,102016.66
2023-01-26T10:07:19.635Z,102019.19
2023-01-26T10:09:49.012Z,102004.13
2023-01-26T10:12:28.256Z,102010.53
2023-01-26T10:15:10.903Z,102012.38
2023-01-26T10:17:40.480Z,102011.19
2023-01-26T10:20:36.322Z,102010.00
2023-01-26T10:23:10.467Z,102001.72
2023-01-26T10:25:41.410Z,102002.78
2023-01-26T10:28:35.198Z,102000.69
2023-01-26T10:31:04.539Z,101997.72
2023-01-26T10:33:36.163Z,102010.91
2023-01-26T10:36:06.191Z,101995.00
2023-01-26T10:38:32.602Z,101997.47
2023-01-26T10:41:18.328Z,101994.88
2023-01-26T10:44:02.785Z,101999.50
2023-01-26T10:46:38.308Z,101997.53
2023-01-26T10:49:19.962Z,101986.22
2023-01-26T10:52:06.072Z,101985.00
2023-01-26T10:54:35.404Z,101988.91
2023-01-26T10:57:14.236Z,101987.28
2023-01-26T10:59:46.176Z,101978.34
2023-01-26T11:02:12.617Z,101975.31
2023-01-26T11:04:39.684Z,101975.72
2023-01-26T11:07:39.967Z,101982.41
2023-01-26T11:10:27.101Z,101977.94
2023-01-26T11:13:16.618Z,101976.00
2023-01-26T11:16:14.620Z,101974.03
2023-01-26T11:18:58.826Z,101972.78
2023-01-26T11:21:47.838Z,101975.00
2023-01-26T11:24:58.669Z,101973.78
2023-01-26T11:27:41.209Z,101966.75
2023-01-26T11:30:38.260Z,101974.25
2023-01-26T11:33:07.523Z,101979.84
2023-01-26T11:36:04.799Z,101965.44
2023-01-26T11:38:42.121Z,101965.56
2023-01-26T11:41:24.628Z,101967.03
2023-01-26T11:43:58.906Z,101962.94
2023-01-26T11:46:45.094Z,101957.84
2023-01-26T11:49:26.863Z,101953.38
2023-01-26T11:52:08.627Z,101954.63
2023-01-26T11:54:57.464Z,101949.53
2023-01-26T11:57:49.291Z,101950.00
2023-01-26T12:00:30.473Z,101960.69
2023-01-26T12:03:05.548Z,101964.25
2023-01-26T12:05:42.397Z,101959.44
2023-01-26T12:08:17.190Z,101952.78
2023-01-26T12:11:21.683Z,101949.47
2023-01-26T12:13:57.090Z,101951.28
2023-01-26T12:16:36.508Z,101946.63
2023-01-26T12:19:12.720Z,101939.56
2023-01-26T12:21:46.368Z,101942.13
2023-01-26T12:24:46.782Z,101936.97
2023-01-26T12:27:14.498Z,101934.97
2023-01-26T12:29:50.131Z,101929.56
2023-01-26T12:32:16.984Z,101933.44
2023-01-26T12:34:43.454Z,101928.84
2023-01-26T12:37:20.433Z,101930.25
2023-01-26T12:39:52.920Z,101922.25
2023-01-26T12:42:26.026Z,101925.13
2023-01-26T12:45:02.090Z,101930.72
2023-01-26T12:47:44.035Z,101920.06
2023-01-26T12:50:36.825Z,101918.34
2023-01-26T12:53:20.025Z,101912.03
2023-01-26T12:56:01.154Z,101907.34
2023-01-26T12:58:31.824Z,101908.06
2023-01-26T13:01:05.072Z,101917.91
2023-01-26T13:03:35.244Z,101918.00
2023-01-26T13:06:18.994Z,101914.09
2023-01-26T13:08:57.567Z,101922.03
2023-01-26T13:11:52.893Z,101929.22
2023-01-26T13:14:39.094Z,101926.03
2023-01-26T13:17:14.655Z,101929.47
2023-01-26T13:19:44.172Z,101925.78
2023-01-26T13:22:23.510Z,101924.16
2023-01-26T13:25:00.053Z,101925.13
2023-01-26T13:27:31.303Z,101920.75
2023-01-26T13:29:57.890Z,101927.47
2023-01-26T13:32:24.306Z,101930.63
2023-01-26T13:34:58.980Z,101920.69
2023-01-26T13:37:42.489Z,101926.25
2023-01-26T13:40:33.388Z,101918.19
2023-01-26T13:43:25.806Z,101925.31
2023-01-26T13:46:03.095Z,101936.13
2023-01-26T13:48:37.926Z,101935.22
2023-01-26T13:51:04.913Z,101922.94
2023-01-26T13:53:38.605Z,101929.41
2023-01-26T13:56:06.757Z,101937.28
2023-01-26T13:58:34.094Z,101934.84
2023-01-26T14:01:05.260Z,101937.94
2023-01-26T14:03:32.348Z,101937.72
2023-01-26T14:06:09.047Z,101934.03
2023-01-26T14:08:36.809Z,101939.13
2023-01-26T14:11:05.779Z,101935.84
2023-01-26T14:13:38.745Z,101934.50
2023-01-26T14:16:06.883Z,101936.97
2023-01-26T14:18:33.901Z,101942.34
2023-01-26T14:21:04.128Z,101935.13
2023-01-26T14:23:35.637Z,101950.81
2023-01-26T14:26:07.244Z,101946.06
2023-01-26T14:28:36.095Z,101952.06
2023-01-26T14:31:23.671Z,101957.31
2023-01-26T14:33:54.993Z,101949.28
2023-01-26T14:36:21.568Z,101951.72
2023-01-26T14:38:50.210Z,101952.25
2023-01-26T14:41:20.343Z,101950.94
2023-01-26T14:43:49.019Z,101951.66
2023-01-26T14:46:18.724Z,101952.63
2023-01-26T14:48:52.653Z,101952.91
2023-01-26T14:51:24.150Z,101959.06
2023-01-26T14:53:52.999Z,101962.31
2023-01-26T14:56:20.864Z,101964.97
2023-01-26T14:58:51.272Z,101961.41
2023-01-26T15:01:22.356Z,101957.25
2023-01-26T15:03:51.470Z,101967.44
2023-01-26T15:06:20.678Z,101962.50
2023-01-26T15:09:01.258Z,101965.53
2023-01-26T15:11:51.554Z,101964.72
2023-01-26T15:14:38.315Z,101971.13
2023-01-26T15:17:05.739Z,101969.38
2023-01-26T15:19:39.570Z,101965.69
2023-01-26T15:22:24.595Z,101960.53
2023-01-26T15:25:17.403Z,101958.56
2023-01-26T15:27:49.650Z,101966.34
2023-01-26T15:30:17.418Z,101965.38
2023-01-26T15:32:44.527Z,101969.44
2023-01-26T15:35:27.324Z,101964.78
2023-01-26T15:38:13.345Z,101965.09
2023-01-26T15:40:39.865Z,101964.72
2023-01-26T15:43:27.640Z,101966.72
2023-01-26T15:45:58.384Z,101967.84
2023-01-26T15:48:25.403Z,101959.25
2023-01-26T15:50:51.927Z,101971.28
2023-01-26T15:53:21.107Z,101961.81
2023-01-26T15:55:58.614Z,101970.50
2023-01-26T15:58:25.721Z,101971.22
2023-01-26T16:00:53.307Z,101978.31
2023-01-26T16:03:22.332Z,101980.94
2023-01-26T16:05:49.473Z,101988.59
2023-01-26T16:08:16.874Z,101978.97
2023-01-26T16:10:44.468Z,101989.31
2023-01-26T16:13:12.352Z,101985.94
2023-01-26T16:15:44.387Z,102002.53
2023-01-26T16:18:11.690Z,102004.56
2023-01-26T16:20:43.250Z,102011.41
2023-01-26T16:23:20.716Z,102006.38
2023-01-26T16:25:47.939Z,102016.97
2023-01-26T16:28:14.927Z,102018.94
2023-01-26T16:30:46.289Z,102018.06
2023-01-26T16:33:15.005Z,102016.72
2023-01-26T16:35:41.975Z,102008.28
2023-01-26T16:38:14.083Z,102012.41
2023-01-26T16:40:41.883Z,102015.31
2023-01-26T16:43:24.112Z,102014.72
2023-01-26T16:45:51.659Z,102015.41
2023-01-26T16:48:18.242Z,102023.34
2023-01-26T16:50:44.881Z,102028.56
2023-01-26T16:53:22.620Z,102019.50
2023-01-26T16:55:49.083Z,102031.50
2023-01-26T16:58:15.541Z,102026.44
2023-01-26T17:00:42.141Z,102035.00
2023-01-26T17:03:11.917Z,102037.09
2023-01-26T17:05:38.998Z,102032.06
2023-01-26T17:08:05.766Z,102033.56
2023-01-26T17:10:33.376Z,102037.13
2023-01-26T17:13:00.677Z,102044.22
2023-01-26T17:15:29.190Z,102037.56
2023-01-26T17:17:57.050Z,102037.69
2023-01-26T17:20:23.604Z,102036.34
2023-01-26T17:22:50.091Z,102043.63
2023-01-26T17:25:18.239Z,102041.94
2023-01-26T17:27:46.422Z,102051.13
2023-01-26T17:30:13.234Z,102050.53
2023-01-26T17:32:41.919Z,102055.97
2023-01-26T17:35:08.962Z,102056.19
2023-01-26T17:37:35.805Z,102061.56
2023-01-26T17:40:02.242Z,102072.09
2023-01-26T17:42:30.083Z,102066.09
2023-01-26T17:44:57.892Z,102073.34
2023-01-26T17:47:24.627Z,102073.28
2023-01-26T17:49:51.082Z,102077.38
2023-01-26T17:52:18.351Z,102074.19
2023-01-26T17:54:44.835Z,102071.94
2023-01-26T17:57:11.935Z,102077.19
2023-01-26T17:59:38.408Z,102071.19
2023-01-26T18:02:04.936Z,102073.22
2023-01-26T18:04:33.219Z,102071.06
2023-01-26T18:07:01.578Z,102072.66
2023-01-26T18:09:28.079Z,102072.50
2023-01-26T18:11:54.518Z,102085.78
2023-01-26T18:14:21.014Z,102081.22
2023-01-26T18:16:48.451Z,102093.94
2023-01-26T18:19:15.088Z,102097.88
2023-01-26T18:21:41.571Z,102096.78
2023-01-26T18:24:08.484Z,102101.78
2023-01-26T18:26:36.732Z,102107.97
2023-01-26T18:29:05.126Z,102112.03
2023-01-26T18:31:33.974Z,102117.09
2023-01-26T18:34:01.296Z,102115.50
2023-01-26T18:36:28.440Z,102127.97
2023-01-26T18:39:00.647Z,102115.63
2023-01-26T18:41:30.392Z,102122.72
2023-01-26T18:43:58.558Z,102118.34
2023-01-26T18:46:27.136Z,102115.63
2023-01-26T18:48:54.444Z,102117.59
2023-01-26T18:51:22.714Z,102130.47
2023-01-26T18:53:49.527Z,102128.53
2023-01-26T18:56:17.151Z,102135.72
2023-01-26T18:58:43.751Z,102140.38
2023-01-26T19:01:15.701Z,102130.03
2023-01-26T19:03:47.639Z,102144.16
2023-01-26T19:06:19.727Z,102130.75
2023-01-26T19:08:47.775Z,102133.94
2023-01-26T19:11:15.902Z,102147.56
2023-01-26T19:13:43.275Z,102137.41
2023-01-26T19:16:11.183Z,102146.13
2023-01-26T19:18:37.694Z,102141.06
2023-01-26T19:21:04.888Z,102139.28
2023-01-26T19:23:31.551Z,102141.66
2023-01-26T19:25:58.033Z,102133.44
2023-01-26T19:28:24.551Z,102131.44
2023-01-26T19:30:52.421Z,102144.94
2023-01-26T19:33:27.294Z,102139.38
2023-01-26T19:35:57.896Z,102149.13
2023-01-26T19:38:24.570Z,102148.13
2023-01-26T19:40:53.048Z,102141.41
2023-01-26T19:43:23.622Z,102155.56
2023-01-26T19:45:55.038Z,102152.19
2023-01-26T19:48:23.873Z,102162.00
2023-01-26T19:51:03.942Z,102161.19
2023-01-26T19:53:33.861Z,102166.19
2023-01-26T19:56:08.526Z,102166.59
2023-01-26T19:58:35.749Z,102169.47
2023-01-26T20:01:05.743Z,102178.84
2023-01-26T20:03:32.355Z,102179.44
2023-01-26T20:05:58.996Z,102183.41
2023-01-26T20:08:26.602Z,102187.81
2023-01-26T20:10:53.414Z,102180.34
2023-01-26T20:13:20.465Z,102181.66
2023-01-26T20:15:46.993Z,102182.44
2023-01-26T20:18:13.512Z,102177.41
2023-01-26T20:20:39.991Z,102183.41
2023-01-26T20:23:07.597Z,102191.38
2023-01-26T20:25:36.543Z,102181.72
2023-01-26T20:28:03.127Z,102172.22
2023-01-26T20:30:29.679Z,102182.38
2023-01-26T20:32:56.166Z,102173.03
2023-01-26T20:35:22.700Z,102173.38
2023-01-26T20:37:49.148Z,102182.63
2023-01-26T20:40:15.929Z,102188.31
2023-01-26T20:42:42.405Z,102181.72
2023-01-26T20:45:09.504Z,102183.19
2023-01-26T20:47:38.230Z,102182.41
2023-01-26T20:50:05.492Z,102185.59
2023-01-26T20:52:31.970Z,102183.41
2023-01-26T20:54:58.541Z,102192.09
2023-01-26T20:57:25.124Z,102194.63
2023-01-26T20:59:51.591Z,102197.88
2023-01-26T21:02:22.341Z,102194.09
2023-01-26T21:04:48.902Z,102188.25
2023-01-26T21:07:16.797Z,102191.72
2023-01-26T21:09:43.267Z,102193.28
2023-01-26T21:12:10.637Z,102196.97
2023-01-26T21:14:37.087Z,102204.84
2023-01-26T21:17:03.821Z,102207.47
2023-01-26T21:19:30.506Z,102213.34
2023-01-26T21:21:59.295Z,102207.22
2023-01-26T21:24:27.185Z,102215.16
2023-01-26T21:26:54.476Z,102215.47
2023-01-26T21:29:21.957Z,102207.84
2023-01-26T21:31:49.449Z,102214.78
2023-01-26T21:34:16.708Z,102207.03
2023-01-26T21:36:43.735Z,102217.13
2023-01-26T21:39:13.776Z,102215.56
2023-01-26T21:41:55.485Z,102217.88
2023-01-26T21:44:24.450Z,102216.97
2023-01-26T21:46:53.418Z,102212.50
2023-01-26T21:49:20.341Z,102219.47
2023-01-26T21:52:05.438Z,102225.13
2023-01-26T21:54:32.364Z,102212.50
2023-01-26T21:56:59.660Z,102216.28
2023-01-26T21:59:26.592Z,102209.47
2023-01-26T22:01:55.509Z,102209.94
2023-01-26T22:04:24.420Z,102210.28
2023-01-26T22:06:52.275Z,102213.19
2023-01-26T22:09:19.470Z,102216.34
2023-01-26T22:11:45.989Z,102211.00
2023-01-26T22:14:24.965Z,102214.41
2023-01-26T22:16:51.745Z,102213.22
2023-01-26T22:19:18.449Z,102216.59
2023-01-26T22:21:45.042Z,102214.50
2023-01-26T22:24:13.135Z,102197.94
2023-01-26T22:26:40.509Z,102205.91
2023-01-26T22:29:07.395Z,102209.97
2023-01-26T22:31:34.319Z,102209.16
2023-01-26T22:34:02.087Z,102212.22
2023-01-26T22:36:29.505Z,102203.47
2023-01-26T22:38:56.440Z,102205.22
2023-01-26T22:41:28.567Z,102205.59
2023-01-26T22:43:57.189Z,102208.06
2023-01-26T22:46:26.000Z,102209.19
2023-01-26T22:48:56.194Z,102209.25
2023-01-26T22:51:27.993Z,102223.84
2023-01-26T22:53:55.083Z,102220.94
2023-01-26T22:56:21.965Z,102229.75
2023-01-26T22:58:58.071Z,102229.66
2023-01-26T23:01:28.155Z,102223.38
2023-01-26T23:03:55.339Z,102231.47
2023-01-26T23:06:22.509Z,102249.25
2023-01-26T23:08:49.071Z,102238.84
2023-01-26T23:11:20.618Z,102239.50
2023-01-26T23:13:48.957Z,102230.13
2023-01-26T23:16:15.667Z,102242.94
2023-01-26T23:18:42.448Z,102239.59
2023-01-26T23:21:09.587Z,102248.63
2023-01-26T23:23:36.273Z,102246.22
2023-01-26T23:26:03.458Z,102248.34
2023-01-26T23:28:32.636Z,102232.66
2023-01-26T23:31:00.413Z,102242.66
2023-01-26T23:33:29.852Z,102241.69
2023-01-26T23:35:56.640Z,102253.91
2023-01-26T23:38:24.703Z,102250.78
2023-01-26T23:40:51.500Z,102251.75
2023-01-26T23:43:18.868Z,102247.97
2023-01-26T23:45:46.980Z,102248.44
2023-01-26T23:48:13.733Z,102258.22
2023-01-26T23:50:40.316Z,102253.09
2023-01-26T23:53:07.308Z,102264.66
2023-01-26T23:55:34.577Z,102264.34
2023-01-26T23:58:01.092Z,102274.47
